createdAt,value
2023-07-05T00:00:31.657Z,9.82
2023-07-05T00:02:38.631Z,12.98
2023-07-05T00:04:58.508Z,13.07
2023-07-05T00:07:03.867Z,15.20
2023-07-05T00:09:09.860Z,15.00
2023-07-05T00:11:18.281Z,12.70
2023-07-05T00:13:29.759Z,12.90
2023-07-05T00:15:35.829Z,16.10
2023-07-05T00:17:45.965Z,11.73
2023-07-05T00:20:08.803Z,12.15
2023-07-05T00:22:16.615Z,11.60
2023-07-05T00:24:22.502Z,10.60
2023-07-05T00:26:30.160Z,13.40
2023-07-05T00:30:46.976Z,11.02
2023-07-05T00:32:52.687Z,8.07
2023-07-05T00:35:01.151Z,13.82
2023-07-05T00:37:06.650Z,11.50
2023-07-05T00:39:12.252Z,11.85
2023-07-05T00:41:18.477Z,8.30
2023-07-05T00:43:30.329Z,9.13
2023-07-05T00:45:58.587Z,10.50
2023-07-05T00:48:04.988Z,16.10
2023-07-05T00:50:29.764Z,11.05
2023-07-05T00:52:35.276Z,11.27
2023-07-05T00:54:47.623Z,10.45
2023-07-05T00:56:56.831Z,11.68
2023-07-05T00:59:04.080Z,10.90
2023-07-05T01:01:12.232Z,10.13
2023-07-05T01:03:25.223Z,12.98
2023-07-05T01:05:35.077Z,9.18
2023-07-05T01:07:41.212Z,9.23
2023-07-05T01:09:49.748Z,10.38
2023-07-05T01:12:02.741Z,8.95
2023-07-05T01:14:18.473Z,8.15
2023-07-05T01:16:54.710Z,11.05
2023-07-05T01:19:14.368Z,8.73
2023-07-05T01:21:33.810Z,8.10
2023-07-05T01:24:48.230Z,8.80
2023-07-05T01:27:26.532Z,7.03
2023-07-05T01:30:01.096Z,10.82
2023-07-05T01:32:22.851Z,7.95
2023-07-05T01:34:45.949Z,6.63
2023-07-05T01:36:51.982Z,9.40
2023-07-05T01:38:57.357Z,8.73
2023-07-05T01:41:06.293Z,9.10
2023-07-05T01:43:14.908Z,10.23
2023-07-05T01:45:24.121Z,14.68
2023-07-05T01:47:40.227Z,9.73
2023-07-05T01:49:55.775Z,14.50
2023-07-05T01:52:06.146Z,9.18
2023-07-05T01:54:16.723Z,16.45
2023-07-05T01:56:24.959Z,10.82
2023-07-05T01:58:33.230Z,9.45
2023-07-05T02:00:43.683Z,13.43
2023-07-05T02:02:59.183Z,11.10
2023-07-05T02:05:08.562Z,13.05
2023-07-05T02:07:14.333Z,13.93
2023-07-05T02:09:21.400Z,13.80
2023-07-05T02:11:27.404Z,11.98
2023-07-05T02:13:48.663Z,19.77
2023-07-05T02:15:54.614Z,13.23
2023-07-05T02:18:03.412Z,7.95
2023-07-05T02:20:11.649Z,8.52
2023-07-05T02:22:17.574Z,7.85
2023-07-05T02:24:27.032Z,8.02
2023-07-05T02:26:34.608Z,7.88
2023-07-05T02:28:48.051Z,10.05
2023-07-05T02:30:53.755Z,8.30
2023-07-05T02:33:05.526Z,11.02
2023-07-05T02:35:12.044Z,10.65
2023-07-05T02:37:20.443Z,6.87
2023-07-05T02:39:26.574Z,7.30
2023-07-05T02:41:35.588Z,8.38
2023-07-05T02:43:41.666Z,11.40
2023-07-05T02:45:59.004Z,10.70
2023-07-05T02:48:08.418Z,10.93
2023-07-05T02:50:16.095Z,7.63
2023-07-05T02:52:21.864Z,6.95
2023-07-05T02:54:34.407Z,7.00
2023-07-05T02:56:42.561Z,6.90
2023-07-05T02:58:48.755Z,8.57
2023-07-05T03:00:54.820Z,11.55
2023-07-05T03:03:01.432Z,6.80
2023-07-05T03:05:17.072Z,7.65
2023-07-05T03:07:23.935Z,6.93
2023-07-05T03:09:30.035Z,10.77
2023-07-05T03:11:40.468Z,5.82
2023-07-05T03:13:49.901Z,18.65
2023-07-05T03:15:57.513Z,6.25
2023-07-05T03:18:03.426Z,5.60
2023-07-05T03:20:10.963Z,6.22
2023-07-05T03:22:21.453Z,4.40
2023-07-05T03:24:42.707Z,4.18
2023-07-05T03:26:48.429Z,8.57
2023-07-05T03:28:54.123Z,3.95
2023-07-05T03:31:03.490Z,4.78
2023-07-05T03:33:09.777Z,4.80
2023-07-05T03:35:17.008Z,4.10
2023-07-05T03:37:25.295Z,6.03
2023-07-05T03:39:36.561Z,6.55
2023-07-05T03:41:41.948Z,3.92
2023-07-05T03:43:52.988Z,3.85
2023-07-05T03:46:01.562Z,3.95
2023-07-05T03:48:08.848Z,4.68
2023-07-05T03:50:15.016Z,4.07
2023-07-05T03:52:20.649Z,5.53
2023-07-05T03:54:35.980Z,4.22
2023-07-05T03:56:41.799Z,4.25
2023-07-05T03:58:47.629Z,2.88
2023-07-05T04:00:54.031Z,4.43
2023-07-05T04:03:00.911Z,3.25
2023-07-05T04:05:07.232Z,4.15
2023-07-05T04:07:24.741Z,4.80
2023-07-05T04:11:38.502Z,5.68
2023-07-05T04:13:50.173Z,5.28
2023-07-05T04:16:06.686Z,4.95
2023-07-05T04:18:13.310Z,3.15
2023-07-05T04:20:19.068Z,3.50
2023-07-05T04:22:25.551Z,4.25
2023-07-05T04:24:37.326Z,2.47
2023-07-05T04:26:43.229Z,4.65
2023-07-05T04:28:49.539Z,5.18
2023-07-05T04:30:56.561Z,3.42
2023-07-05T04:33:02.148Z,3.38
2023-07-05T04:35:08.495Z,3.53
2023-07-05T04:37:39.232Z,4.60
2023-07-05T04:39:48.025Z,4.13
2023-07-05T04:41:53.718Z,3.58
2023-07-05T04:43:59.393Z,3.17
2023-07-05T04:46:05.405Z,6.00
2023-07-05T04:48:11.936Z,5.60
2023-07-05T04:50:22.109Z,4.60
2023-07-05T04:52:27.473Z,5.20
2023-07-05T04:54:38.000Z,4.47
2023-07-05T04:56:47.778Z,4.05
2023-07-05T04:58:53.183Z,5.60
2023-07-05T05:01:09.417Z,4.05
2023-07-05T05:03:15.541Z,3.97
2023-07-05T05:05:21.098Z,5.45
2023-07-05T05:07:27.911Z,10.10
2023-07-05T05:09:34.557Z,5.35
2023-07-05T05:11:43.097Z,7.32
2023-07-05T05:14:01.067Z,7.15
2023-07-05T05:16:07.313Z,6.65
2023-07-05T05:18:13.629Z,7.60
2023-07-05T05:20:21.201Z,6.70
2023-07-05T05:22:27.359Z,5.20
2023-07-05T05:24:36.182Z,4.38
2023-07-05T05:26:42.030Z,4.75
2023-07-05T05:28:50.657Z,6.28
2023-07-05T05:30:56.753Z,5.88
2023-07-05T05:33:07.439Z,10.15
2023-07-05T05:35:13.864Z,6.20
2023-07-05T05:37:20.550Z,6.10
2023-07-05T05:39:28.316Z,6.43
2023-07-05T05:41:33.850Z,6.13
2023-07-05T05:43:46.583Z,5.28
2023-07-05T05:45:54.518Z,6.15
2023-07-05T05:48:00.594Z,6.30
2023-07-05T05:50:06.167Z,4.68
2023-07-05T05:52:12.296Z,5.18
2023-07-05T05:54:21.429Z,6.50
2023-07-05T05:56:26.801Z,5.82
2023-07-05T05:58:36.381Z,3.85
2023-07-05T06:00:42.053Z,6.68
2023-07-05T06:02:50.836Z,10.30
2023-07-05T06:04:57.011Z,5.43
2023-07-05T06:07:02.387Z,5.00
2023-07-05T06:09:12.887Z,4.13
2023-07-05T06:11:18.258Z,3.88
2023-07-05T06:13:30.480Z,4.70
2023-07-05T06:15:35.888Z,7.43
2023-07-05T06:17:42.509Z,4.07
2023-07-05T06:19:51.310Z,6.20
2023-07-05T06:21:56.916Z,5.00
2023-07-05T06:24:03.050Z,4.93
2023-07-05T06:26:09.441Z,6.10
2023-07-05T06:28:15.104Z,15.75
2023-07-05T06:30:20.987Z,4.57
2023-07-05T06:32:27.731Z,5.38
2023-07-05T06:34:39.441Z,7.55
2023-07-05T06:36:47.915Z,6.18
2023-07-05T06:38:53.561Z,7.47
2023-07-05T06:40:59.111Z,4.70
2023-07-05T06:43:04.623Z,5.05
2023-07-05T06:45:14.841Z,4.05
2023-07-05T06:47:21.820Z,4.88
2023-07-05T06:49:30.213Z,4.05
2023-07-05T06:51:40.360Z,5.63
2023-07-05T06:53:54.088Z,6.90
2023-07-05T06:55:59.463Z,5.30
2023-07-05T06:58:05.096Z,4.20
2023-07-05T07:00:12.741Z,4.85
2023-07-05T07:04:30.236Z,6.60
2023-07-05T07:06:37.024Z,5.70
2023-07-05T07:08:42.581Z,4.97
2023-07-05T07:10:51.712Z,5.78
2023-07-05T07:12:57.364Z,5.25
2023-07-05T07:15:04.942Z,7.78
2023-07-05T07:17:10.313Z,3.05
2023-07-05T07:19:18.964Z,5.20
2023-07-05T07:21:24.643Z,7.53
2023-07-05T07:23:35.634Z,6.00
2023-07-05T07:25:41.205Z,4.55
2023-07-05T07:27:52.277Z,3.65
2023-07-05T07:29:57.709Z,6.85
2023-07-05T07:32:04.043Z,4.45
2023-07-05T07:34:09.726Z,5.18
2023-07-05T07:36:17.932Z,5.30
2023-07-05T07:38:23.781Z,4.53
2023-07-05T07:40:30.048Z,4.55
2023-07-05T07:42:43.497Z,4.57
2023-07-05T07:44:57.954Z,4.78
2023-07-05T07:47:04.427Z,5.68
2023-07-05T07:49:12.584Z,5.65
2023-07-05T07:51:35.821Z,5.18
2023-07-05T07:53:45.903Z,5.13
2023-07-05T07:55:52.887Z,5.20
2023-07-05T07:57:58.338Z,4.50
2023-07-05T08:00:12.278Z,4.63
2023-07-05T08:02:20.714Z,9.27
2023-07-05T08:04:30.501Z,4.47
2023-07-05T08:06:40.450Z,8.80
2023-07-05T08:08:47.123Z,6.32
2023-07-05T08:10:53.291Z,5.72
2023-07-05T08:13:00.865Z,5.47
2023-07-05T08:17:17.616Z,5.22
2023-07-05T08:19:23.104Z,6.60
2023-07-05T08:21:46.722Z,5.07
2023-07-05T08:23:54.674Z,4.82
2023-07-05T08:26:02.805Z,6.28
2023-07-05T08:28:09.655Z,5.57
2023-07-05T08:30:18.953Z,7.68
2023-07-05T08:32:26.187Z,5.45
2023-07-05T08:34:36.765Z,6.10
2023-07-05T08:36:44.288Z,4.63
2023-07-05T08:38:52.529Z,8.57
2023-07-05T08:41:08.685Z,5.68
2023-07-05T08:43:20.678Z,5.55
2023-07-05T08:45:40.218Z,6.95
2023-07-05T08:47:50.916Z,5.72
2023-07-05T08:50:24.878Z,5.63
2023-07-05T08:52:41.337Z,7.35
2023-07-05T08:54:57.870Z,5.32
2023-07-05T08:57:09.061Z,6.10
2023-07-05T08:59:27.517Z,5.97
2023-07-05T09:01:48.909Z,5.55
2023-07-05T09:03:57.634Z,5.25
2023-07-05T09:06:22.925Z,5.28
2023-07-05T09:08:40.637Z,5.80
2023-07-05T09:10:52.448Z,6.00
2023-07-05T09:13:12.814Z,6.03
2023-07-05T09:15:25.788Z,7.15
2023-07-05T09:17:45.882Z,12.13
2023-07-05T09:20:04.312Z,5.70
2023-07-05T09:22:14.950Z,6.05
2023-07-05T09:24:25.194Z,6.40
2023-07-05T09:26:38.168Z,6.60
2023-07-05T09:28:51.736Z,6.50
2023-07-05T09:30:58.988Z,6.25
2023-07-05T09:33:14.403Z,4.82
2023-07-05T09:35:22.804Z,7.57
2023-07-05T09:37:33.261Z,5.13
2023-07-05T09:39:45.387Z,3.70
2023-07-05T09:41:54.123Z,6.50
2023-07-05T09:44:00.405Z,8.23
2023-07-05T09:46:07.901Z,10.77
2023-07-05T09:48:18.786Z,6.63
2023-07-05T09:50:28.713Z,6.32
2023-07-05T09:52:36.977Z,5.70
2023-07-05T09:54:49.759Z,4.07
2023-07-05T09:57:06.202Z,7.05
2023-07-05T09:59:22.159Z,6.10
2023-07-05T10:01:30.791Z,5.90
2023-07-05T10:03:53.701Z,3.53
2023-07-05T10:06:02.041Z,5.13
2023-07-05T10:08:21.352Z,3.80
2023-07-05T10:10:40.288Z,3.33
2023-07-05T10:12:49.041Z,3.83
2023-07-05T10:15:00.214Z,3.22
2023-07-05T10:17:14.996Z,4.53
2023-07-05T10:19:34.325Z,4.93
2023-07-05T10:21:39.831Z,4.45
2023-07-05T10:23:55.137Z,4.07
2023-07-05T10:26:17.255Z,4.32
2023-07-05T10:28:31.902Z,3.72
2023-07-05T10:30:54.281Z,2.47
2023-07-05T10:33:22.066Z,3.08
2023-07-05T10:35:35.348Z,2.72
2023-07-05T10:37:44.078Z,4.40
2023-07-05T10:39:51.474Z,3.72
2023-07-05T10:42:00.958Z,4.25
2023-07-05T10:44:11.929Z,3.38
2023-07-05T10:46:19.641Z,2.80
2023-07-05T10:48:34.687Z,3.97
2023-07-05T10:50:48.433Z,2.15
2023-07-05T10:52:59.905Z,3.42
2023-07-05T10:55:16.432Z,4.07
2023-07-05T10:57:37.893Z,2.50
2023-07-05T10:59:47.871Z,2.63
2023-07-05T11:02:00.071Z,2.67
2023-07-05T11:04:15.172Z,2.60
2023-07-05T11:06:25.652Z,2.10
2023-07-05T11:08:33.245Z,3.45
2023-07-05T11:12:51.840Z,3.83
2023-07-05T11:14:59.564Z,3.15
2023-07-05T11:17:05.835Z,2.00
2023-07-05T11:19:17.100Z,2.38
2023-07-05T11:21:41.323Z,5.03
2023-07-05T11:24:00.584Z,3.17
2023-07-05T11:26:06.374Z,3.58
2023-07-05T11:28:38.030Z,4.97
2023-07-05T11:30:48.754Z,3.55
2023-07-05T11:33:26.403Z,2.15
2023-07-05T11:35:48.559Z,5.13
2023-07-05T11:37:56.530Z,1.90
2023-07-05T11:40:07.206Z,3.05
2023-07-05T11:42:48.628Z,4.93
2023-07-05T11:45:18.056Z,1.73
2023-07-05T11:47:52.675Z,3.95
2023-07-05T11:50:01.306Z,3.38
2023-07-05T11:52:28.013Z,1.80
2023-07-05T11:55:04.908Z,1.35
2023-07-05T11:57:14.423Z,2.47
2023-07-05T11:59:29.083Z,1.40
2023-07-05T12:01:45.048Z,5.22
2023-07-05T12:04:00.968Z,3.17
2023-07-05T12:06:22.975Z,3.55
2023-07-05T12:08:39.651Z,1.50
2023-07-05T12:11:02.388Z,2.58
2023-07-05T12:13:13.192Z,2.92
2023-07-05T12:15:19.468Z,1.85
2023-07-05T12:17:30.952Z,3.13
2023-07-05T12:19:55.843Z,1.75
2023-07-05T12:22:05.830Z,2.45
2023-07-05T12:24:15.982Z,1.95
2023-07-05T12:26:31.424Z,1.70
2023-07-05T12:28:40.446Z,3.28
2023-07-05T12:30:57.067Z,3.30
2023-07-05T12:35:43.559Z,2.83
2023-07-05T12:37:51.172Z,1.05
2023-07-05T12:40:13.825Z,1.40
2023-07-05T12:42:34.448Z,3.05
2023-07-05T12:44:52.208Z,1.52
2023-07-05T12:47:14.158Z,3.70
2023-07-05T12:49:39.152Z,2.78
2023-07-05T12:52:03.285Z,2.90
2023-07-05T12:54:08.963Z,4.82
2023-07-05T12:56:18.116Z,3.53
2023-07-05T12:58:27.575Z,2.53
2023-07-05T13:00:33.389Z,2.22
2023-07-05T13:02:42.433Z,2.58
2023-07-05T13:04:56.805Z,4.75
2023-07-05T13:07:12.651Z,2.15
2023-07-05T13:09:30.848Z,5.00
2023-07-05T13:11:38.552Z,1.88
2023-07-05T13:14:05.554Z,3.65
2023-07-05T13:16:27.802Z,1.55
2023-07-05T13:18:36.681Z,2.33
2023-07-05T13:20:48.025Z,6.05
2023-07-05T13:23:00.076Z,3.22
2023-07-05T13:25:07.293Z,2.63
2023-07-05T13:29:34.851Z,6.40
2023-07-05T13:31:50.483Z,2.45
2023-07-05T13:34:05.463Z,5.45
2023-07-05T13:36:12.856Z,3.28
2023-07-05T13:38:19.428Z,3.15
2023-07-05T13:40:27.529Z,6.07
2023-07-05T13:42:49.368Z,2.70
2023-07-05T13:44:59.643Z,2.78
2023-07-05T13:47:08.421Z,4.90
2023-07-05T13:49:16.793Z,3.50
2023-07-05T13:51:30.551Z,4.57
2023-07-05T13:53:40.438Z,2.13
2023-07-05T13:55:47.511Z,4.75
2023-07-05T14:00:17.006Z,3.35
2023-07-05T14:02:35.561Z,4.20
2023-07-05T14:04:48.435Z,5.07
2023-07-05T14:06:55.629Z,2.15
2023-07-05T14:09:03.572Z,2.67
2023-07-05T14:11:10.494Z,6.22
2023-07-05T14:13:28.352Z,2.00
2023-07-05T14:15:48.496Z,2.85
2023-07-05T14:17:55.377Z,4.72
2023-07-05T14:20:01.362Z,3.47
2023-07-05T14:22:09.000Z,5.00
2023-07-05T14:24:27.646Z,7.32
2023-07-05T14:26:38.049Z,2.85
2023-07-05T14:28:44.034Z,2.60
2023-07-05T14:30:56.540Z,5.57
2023-07-05T14:33:02.302Z,3.80
2023-07-05T14:35:21.459Z,5.60
2023-07-05T14:37:28.231Z,2.78
2023-07-05T14:39:39.876Z,2.25
2023-07-05T14:41:46.446Z,4.80
2023-07-05T14:43:55.229Z,3.80
2023-07-05T14:46:03.184Z,2.67
2023-07-05T14:48:14.813Z,5.40
2023-07-05T14:50:24.939Z,4.13
2023-07-05T14:52:30.755Z,2.28
2023-07-05T14:54:44.251Z,4.25
2023-07-05T14:56:53.512Z,3.22
2023-07-05T14:59:01.344Z,4.63
2023-07-05T15:01:19.083Z,5.47
2023-07-05T15:05:38.113Z,7.90
2023-07-05T15:07:43.804Z,7.97
2023-07-05T15:09:51.489Z,2.78
2023-07-05T15:11:59.709Z,2.78
2023-07-05T15:14:09.297Z,4.47
2023-07-05T15:16:23.710Z,3.03
2023-07-05T15:18:30.752Z,1.77
2023-07-05T15:20:41.917Z,5.55
2023-07-05T15:22:52.752Z,5.75
2023-07-05T15:25:00.673Z,3.83
2023-07-05T15:27:12.017Z,4.07
2023-07-05T15:29:17.834Z,5.28
2023-07-05T15:31:45.317Z,5.97
2023-07-05T15:33:53.259Z,4.20
2023-07-05T15:35:59.810Z,4.53
2023-07-05T15:38:06.438Z,4.75
2023-07-05T15:40:13.866Z,7.70
2023-07-05T15:42:25.243Z,6.85
2023-07-05T15:44:53.253Z,3.47
2023-07-05T15:47:01.680Z,7.22
2023-07-05T15:49:08.588Z,6.03
2023-07-05T15:51:16.745Z,3.07
2023-07-05T15:53:41.578Z,5.70
2023-07-05T15:55:47.731Z,5.90
2023-07-05T15:57:53.530Z,3.65
2023-07-05T16:00:05.327Z,3.78
2023-07-05T16:02:22.478Z,3.35
2023-07-05T16:04:32.169Z,3.80
2023-07-05T16:06:41.560Z,6.60
2023-07-05T16:08:48.613Z,5.47
2023-07-05T16:10:56.401Z,5.80
2023-07-05T16:13:03.597Z,3.65
2023-07-05T16:15:11.793Z,3.47
2023-07-05T16:17:20.980Z,3.80
2023-07-05T16:19:33.384Z,5.20
2023-07-05T16:21:40.143Z,4.65
2023-07-05T16:23:52.206Z,3.67
2023-07-05T16:25:58.500Z,4.75
2023-07-05T16:28:04.165Z,3.88
2023-07-05T16:30:11.199Z,6.60
2023-07-05T16:32:21.255Z,6.50
2023-07-05T16:34:34.289Z,3.75
2023-07-05T16:36:39.917Z,7.53
2023-07-05T16:38:46.504Z,5.20
2023-07-05T16:40:51.953Z,7.47
2023-07-05T16:42:57.554Z,8.13
2023-07-05T16:45:03.304Z,4.78
2023-07-05T16:47:16.744Z,5.50
2023-07-05T16:49:24.786Z,3.17
2023-07-05T16:51:31.320Z,5.90
2023-07-05T16:53:39.394Z,6.15
2023-07-05T16:55:44.845Z,7.57
2023-07-05T16:57:50.608Z,6.22
2023-07-05T16:59:56.227Z,5.85
2023-07-05T17:02:03.696Z,5.40
2023-07-05T17:04:10.363Z,2.97
2023-07-05T17:06:32.750Z,7.20
2023-07-05T17:08:39.527Z,5.35
2023-07-05T17:10:44.915Z,4.63
2023-07-05T17:12:50.338Z,6.40
2023-07-05T17:14:57.287Z,4.97
2023-07-05T17:17:02.644Z,5.78
2023-07-05T17:19:17.073Z,5.13
2023-07-05T17:21:25.812Z,6.30
2023-07-05T17:23:37.570Z,4.85
2023-07-05T17:25:42.904Z,8.20
2023-07-05T17:27:49.767Z,7.05
2023-07-05T17:29:58.250Z,5.03
2023-07-05T17:32:13.669Z,3.45
2023-07-05T17:34:20.164Z,5.53
2023-07-05T17:36:30.018Z,3.95
2023-07-05T17:38:36.077Z,4.65
2023-07-05T17:40:41.871Z,5.53
2023-07-05T17:42:55.290Z,5.65
2023-07-05T17:45:07.292Z,3.33
2023-07-05T17:47:13.191Z,5.90
2023-07-05T17:49:24.293Z,5.32
2023-07-05T17:51:36.214Z,4.05
2023-07-05T17:53:48.822Z,4.03
2023-07-05T17:56:01.240Z,4.38
2023-07-05T17:58:11.585Z,4.78
2023-07-05T18:00:18.195Z,5.05
2023-07-05T18:02:23.548Z,4.93
2023-07-05T18:04:39.021Z,3.30
2023-07-05T18:06:49.693Z,4.97
2023-07-05T18:08:55.525Z,4.63
2023-07-05T18:11:02.153Z,3.55
2023-07-05T18:13:09.103Z,7.85
2023-07-05T18:15:15.357Z,4.00
2023-07-05T18:17:22.939Z,4.97
2023-07-05T18:21:42.218Z,3.78
2023-07-05T18:23:59.352Z,5.03
2023-07-05T18:26:07.395Z,6.22
2023-07-05T18:28:13.838Z,5.63
2023-07-05T18:30:19.327Z,5.18
2023-07-05T18:32:24.779Z,4.78
2023-07-05T18:34:41.328Z,3.83
2023-07-05T18:36:46.681Z,9.15
2023-07-05T18:38:56.002Z,5.32
2023-07-05T18:41:02.279Z,5.88
2023-07-05T18:43:10.146Z,5.20
2023-07-05T18:45:18.877Z,5.70
2023-07-05T18:47:24.296Z,4.55
2023-07-05T18:49:34.706Z,6.80
2023-07-05T18:51:40.089Z,5.95
2023-07-05T18:53:49.042Z,3.55
2023-07-05T18:56:12.021Z,5.80
2023-07-05T18:58:20.599Z,4.78
2023-07-05T19:00:26.056Z,5.68
2023-07-05T19:02:32.017Z,5.05
2023-07-05T19:04:42.601Z,6.75
2023-07-05T19:06:47.950Z,5.28
2023-07-05T19:08:56.701Z,10.38
2023-07-05T19:11:07.188Z,5.22
2023-07-05T19:13:20.527Z,5.60
2023-07-05T19:15:27.036Z,4.70
2023-07-05T19:17:37.896Z,5.90
2023-07-05T19:19:44.233Z,5.82
2023-07-05T19:21:49.633Z,3.85
2023-07-05T19:23:58.140Z,5.70
2023-07-05T19:26:16.684Z,3.92
2023-07-05T19:28:23.041Z,3.60
2023-07-05T19:30:29.676Z,4.10
2023-07-05T19:32:35.433Z,2.90
2023-07-05T19:34:48.533Z,3.90
2023-07-05T19:36:53.934Z,3.58
2023-07-05T19:39:02.317Z,5.88
2023-07-05T19:41:11.375Z,4.65
2023-07-05T19:43:23.765Z,5.80
2023-07-05T19:45:31.508Z,7.57
2023-07-05T19:47:37.417Z,3.60
2023-07-05T19:49:43.691Z,5.75
2023-07-05T19:51:49.457Z,3.78
2023-07-05T19:53:54.840Z,4.15
2023-07-05T19:56:07.040Z,7.85
2023-07-05T19:58:24.918Z,5.38
2023-07-05T20:00:34.777Z,7.60
2023-07-05T20:02:43.029Z,3.65
2023-07-05T20:04:51.718Z,5.30
2023-07-05T20:07:06.517Z,4.15
2023-07-05T20:09:13.391Z,2.47
2023-07-05T20:11:21.141Z,4.45
2023-07-05T20:13:31.261Z,4.75
2023-07-05T20:15:37.375Z,5.28
2023-07-05T20:17:42.962Z,3.25
2023-07-05T20:19:49.016Z,3.97
2023-07-05T20:21:57.738Z,3.65
2023-07-05T20:24:05.354Z,3.72
2023-07-05T20:28:20.941Z,4.35
2023-07-05T20:30:30.905Z,3.83
2023-07-05T20:32:38.241Z,5.60
2023-07-05T20:34:47.000Z,4.07
2023-07-05T20:36:53.307Z,4.20
2023-07-05T20:39:01.361Z,6.20
2023-07-05T20:41:07.892Z,3.50
2023-07-05T20:43:15.949Z,3.83
2023-07-05T20:45:24.082Z,5.50
2023-07-05T20:47:33.314Z,4.82
2023-07-05T20:49:39.995Z,6.55
2023-07-05T20:51:55.461Z,5.15
2023-07-05T20:54:02.977Z,6.20
2023-07-05T20:56:12.433Z,5.55
2023-07-05T20:58:20.568Z,5.22
2023-07-05T21:00:29.596Z,3.72
2023-07-05T21:02:38.750Z,4.75
2023-07-05T21:04:48.895Z,3.40
2023-07-05T21:07:01.869Z,4.25
2023-07-05T21:09:10.027Z,5.80
2023-07-05T21:11:20.353Z,2.97
2023-07-05T21:13:39.907Z,4.03
2023-07-05T21:15:49.297Z,7.72
2023-07-05T21:17:57.609Z,3.95
2023-07-05T21:20:05.714Z,3.67
2023-07-05T21:22:13.897Z,5.55
2023-07-05T21:24:21.505Z,2.95
2023-07-05T21:26:30.597Z,2.05
2023-07-05T21:28:36.228Z,3.80
2023-07-05T21:30:41.954Z,5.93
2023-07-05T21:32:57.413Z,4.63
2023-07-05T21:35:07.064Z,3.28
2023-07-05T21:37:14.873Z,4.15
2023-07-05T21:39:21.474Z,4.05
2023-07-05T21:41:34.680Z,6.25
2023-07-05T21:43:42.501Z,5.03
2023-07-05T21:45:51.270Z,5.45
2023-07-05T21:48:07.251Z,3.97
2023-07-05T21:50:14.298Z,3.95
2023-07-05T21:52:25.065Z,4.78
2023-07-05T21:54:41.519Z,4.97
2023-07-05T21:56:48.704Z,4.13
2023-07-05T21:58:54.538Z,4.30
2023-07-05T22:01:03.203Z,6.63
2023-07-05T22:03:14.428Z,3.80
2023-07-05T22:05:21.674Z,3.60
2023-07-05T22:07:27.787Z,4.80
2023-07-05T22:09:33.268Z,4.22
2023-07-05T22:11:49.591Z,6.07
2023-07-05T22:13:58.801Z,5.20
2023-07-05T22:16:06.832Z,4.45
2023-07-05T22:18:14.771Z,6.88
2023-07-05T22:20:24.655Z,3.58
2023-07-05T22:22:31.974Z,6.53
2023-07-05T22:24:43.964Z,6.75
2023-07-05T22:26:50.858Z,4.90
2023-07-05T22:28:56.269Z,6.20
2023-07-05T22:31:02.075Z,4.60
2023-07-05T22:33:14.064Z,5.28
2023-07-05T22:35:20.064Z,5.53
2023-07-05T22:37:26.266Z,5.25
2023-07-05T22:39:48.780Z,5.28
2023-07-05T22:41:55.244Z,6.88
2023-07-05T22:44:03.009Z,5.72
2023-07-05T22:48:19.262Z,3.75
2023-07-05T22:50:26.705Z,4.30
2023-07-05T22:52:31.393Z,4.55
2023-07-05T22:54:49.327Z,5.15
2023-07-05T22:56:58.094Z,5.22
2023-07-05T22:59:04.589Z,6.18
2023-07-05T23:01:12.228Z,3.97
2023-07-05T23:05:38.863Z,4.10
2023-07-05T23:07:44.551Z,3.92
2023-07-05T23:09:51.159Z,3.85
2023-07-05T23:12:01.244Z,7.13
2023-07-05T23:14:06.991Z,3.83
2023-07-05T23:16:17.051Z,2.55
2023-07-05T23:18:25.209Z,3.60
2023-07-05T23:20:35.065Z,6.85
2023-07-05T23:22:42.026Z,4.22
2023-07-05T23:24:54.508Z,4.68
2023-07-05T23:27:03.905Z,5.03
2023-07-05T23:29:09.889Z,4.40
2023-07-05T23:31:21.661Z,4.20
2023-07-05T23:33:35.460Z,4.63
2023-07-05T23:35:39.634Z,4.82
2023-07-05T23:37:45.030Z,5.50
2023-07-05T23:39:56.934Z,4.53
2023-07-05T23:42:03.006Z,4.45
2023-07-05T23:44:08.715Z,4.85
2023-07-05T23:46:14.528Z,4.43
2023-07-05T23:48:20.645Z,4.72
2023-07-05T23:50:34.919Z,5.35
2023-07-05T23:52:44.037Z,7.80
2023-07-05T23:54:50.569Z,4.78
2023-07-05T23:57:05.083Z,4.57
2023-07-05T23:59:10.855Z,4.38
